• Join FlightAware (Why Join?)
  • Login
  • US Flag GB Flag 
15:03 EDT


 

Airport Tracker/Info


-or-


 

Live Flight TrackerFlight Track Log ✈ N479B ✈ 06-Oct-2013 ✈ KCOD - KCRS

Flight Track Log - Related Links

Times and Time Zones

All times are in EDT time to prevent confusion due to time zone crossing. See the N479B flight status page for this flight to view local times or setup timezone preferences in your user account.

Time Position Orientation Groundspeed Altitude Reporting Facility
EDT Latitude Longitude Course Direction KTS MPH feet Rate Location/Type
12:17 44.5958 -108.9642 104° East 163 188 9,000  Level Salt Lake Center
12:18 44.5836 -108.8975 104° East 174 200 10,800 1,620 Climbing Salt Lake Center
12:19 44.5406 -108.8519 143° Southeast 183 211 12,400 1,500 Climbing Salt Lake Center
12:20 44.4975 -108.8006 140° Southeast 195 224 14,000 1,500 Climbing Salt Lake Center
12:21 44.4503 -108.7461 141° Southeast 211 243 15,500 1,560 Climbing Salt Lake Center
12:22 44.3892 -108.6794 142° Southeast 228 262 17,300 1,320 Climbing Salt Lake Center
12:23 44.3403 -108.6231 140° Southeast 229 264 18,300 1,080 Climbing Salt Lake Center
12:24 44.2906 -108.5664 141° Southeast 230 265 19,600 1,200 Climbing Salt Lake Center
12:25 44.2406 -108.5097 141° Southeast 232 267 20,900 1,080 Climbing Salt Lake Center
12:26 44.1903 -108.4522 141° Southeast 234 269 21,900 960 Climbing Salt Lake Center
12:27 44.1356 -108.3917 142° Southeast 247 284 22,900 1,020 Climbing Salt Lake Center
12:28 44.0692 -108.3158 141° Southeast 259 298 24,100 1,020 Climbing Salt Lake Center
12:29 44.0139 -108.2550 142° Southeast 256 295 25,100 960 Climbing Salt Lake Center
12:30 43.9597 -108.1950 141° Southeast 252 290 26,100 840 Climbing Salt Lake Center
12:31 43.9067 -108.1367 142° Southeast 246 283 26,900 720 Climbing Salt Lake Center
12:32 43.8536 -108.0778 141° Southeast 245 282 27,700 840 Climbing Salt Lake Center
12:33 43.7917 -108.0075 141° Southeast 242 278 28,700 600 Climbing Salt Lake Center
12:34 43.7378 -107.9492 142° Southeast 245 282 29,000 120 Climbing Salt Lake Center
12:35 43.6792 -107.8833 141° Southeast 268 308 29,000  Level Salt Lake Center
12:36 43.6142 -107.8122 142° Southeast 293 337 29,000  Level Salt Lake Center
12:37 43.5481 -107.7381 141° Southeast 307 353 29,000  Level Salt Lake Center
12:38 43.4789 -107.6647 142° Southeast 315 362 29,000  Level Salt Lake Center
12:39 43.3958 -107.5739 142° Southeast 319 367 29,000  Level Salt Lake Center
12:40 43.3256 -107.4975 142° Southeast 321 369 29,000  Level Salt Lake Center
12:41 43.2561 -107.4206 141° Southeast 323 372 29,000  Level Salt Lake Center
12:42 43.1842 -107.3433 142° Southeast 329 379 29,000  Level Salt Lake Center
12:44 43.1139 -107.2678 142° Southeast 323 372 29,000  Level Salt Lake Center
12:45 43.0444 -107.1925 142° Southeast 320 368 29,000  Level Salt Lake Center
12:46 42.9736 -107.1192 143° Southeast 321 369 29,000  Level Salt Lake Center
12:47 42.8950 -107.0325 141° Southeast 322 371 29,000  Level Salt Lake Center
12:48 42.8303 -106.9661 143° Southeast 324 373 29,000  Level Denver Center
12:49 42.7525 -106.8817 141° Southeast 321 369 29,000  Level Denver Center
12:50 42.6847 -106.8103 142° Southeast 323 372 29,000  Level Denver Center
12:51 42.6050 -106.7261 142° Southeast 325 374 29,000  Level Denver Center
12:52 42.5367 -106.6542 142° Southeast 326 375 29,000  Level Denver Center
12:53 42.4569 -106.5700 142° Southeast 326 375 29,000  Level Denver Center
12:54 42.3878 -106.4994 143° Southeast 327 376 29,000  Level Denver Center
12:55 42.3075 -106.4167 143° Southeast 327 376 29,000  Level Denver Center
12:56 42.2403 -106.3444 141° Southeast 324 373 29,000  Level Denver Center
12:57 42.1717 -106.2742 143° Southeast 323 372 29,000  Level Denver Center
12:58 42.0903 -106.1900 142° Southeast 329 379 29,000  Level Denver Center
12:59 42.0106 -106.1078 143° Southeast 326 375 29,000  Level Denver Center
13:00 41.9408 -106.0378 143° Southeast 327 376 29,000  Level Denver Center
13:01 41.8608 -105.9550 142° Southeast 326 375 29,000  Level Denver Center
13:02 41.7903 -105.8836 143° Southeast 330 380 29,000  Level Denver Center
13:03 41.7106 -105.8019 143° Southeast 326 375 29,000  Level Denver Center
13:04 41.6422 -105.7339 143° Southeast 323 372 29,000  Level Denver Center
13:05 41.5614 -105.6514 143° Southeast 327 376 29,000  Level Denver Center
13:06 41.4914 -105.5825 144° Southeast 327 376 29,000  Level Denver Center
13:07 41.4111 -105.5025 143° Southeast 325 374 29,000  Level Denver Center
13:08 41.3414 -105.4306 142° Southeast 329 379 29,000  Level Denver Center
13:09 41.2606 -105.3489 143° Southeast 328 377 29,000  Level Denver Center
13:10 41.1900 -105.2814 144° Southeast 328 377 29,000  Level Denver Center
13:11 41.1203 -105.2103 142° Southeast 331 381 29,000  Level Denver Center
13:12 41.0375 -105.1283 143° Southeast 332 382 29,000  Level Denver Center
13:13 40.9644 -105.0569 144° Southeast 333 383 29,000  Level Denver Center
13:14 40.8897 -104.9833 143° Southeast 335 386 29,000  Level Denver Center
13:15 40.8164 -104.9111 143° Southeast 330 380 29,000  Level Denver Center
13:17 40.7258 -104.8231 144° Southeast 335 386 29,000  Level Denver Center
13:18 40.6514 -104.7500 143° Southeast 334 384 29,000  Level Denver Center
13:19 40.5761 -104.6764 143° Southeast 337 388 29,000  Level Denver Center
13:20 40.5008 -104.6042 144° Southeast 334 384 29,000  Level Denver Center
13:21 40.4261 -104.5319 144° Southeast 334 384 29,000  Level Denver Center
13:22 40.3514 -104.4586 143° Southeast 334 384 29,000  Level Denver Center
13:23 40.2608 -104.3725 144° Southeast 334 384 29,000  Level Denver Center
13:24 40.1864 -104.3003 143° Southeast 332 382 29,000  Level Denver Center
13:25 40.1125 -104.2297 144° Southeast 329 379 29,000  Level Denver Center
13:26 40.0367 -104.1578 144° Southeast 333 383 29,000  Level Denver Center
13:27 39.9611 -104.0864 144° Southeast 334 384 29,000  Level Denver Center
13:28 39.8847 -104.0142 144° Southeast 338 389 29,000  Level Denver Center
13:29 39.7939 -103.9283 144° Southeast 335 386 29,000  Level Denver Center
13:30 39.7172 -103.8567 144° Southeast 337 388 29,000  Level Denver Center
13:31 39.6419 -103.7864 144° Southeast 335 386 29,000  Level Denver Center
13:32 39.5669 -103.7169 144° Southeast 329 379 29,000  Level Denver Center
13:33 39.4878 -103.6433 144° Southeast 331 381 29,000  Level Denver Center
13:34 39.4167 -103.5769 144° Southeast 332 382 29,000  Level Denver Center
13:35 39.3403 -103.5064 144° Southeast 336 387 29,000  Level Denver Center
13:36 39.2494 -103.4219 144° Southeast 337 388 29,000  Level Denver Center
13:37 39.1742 -103.3528 145° Southeast 334 384 29,000  Level Denver Center
13:38 39.0981 -103.2822 144° Southeast 335 386 29,000  Level Denver Center
13:39 39.0228 -103.2131 144° Southeast 334 384 29,000  Level Denver Center
13:40 38.9472 -103.1436 144° Southeast 334 384 29,000  Level Denver Center
13:41 38.8703 -103.0753 145° Southeast 336 387 29,000  Level Denver Center
13:42 38.7792 -102.9919 145° Southeast 336 387 29,000  Level Denver Center
13:43 38.7036 -102.9228 144° Southeast 335 386 29,000  Level Denver Center
13:44 38.6281 -102.8539 145° Southeast 334 384 29,000  Level Denver Center
13:45 38.5531 -102.7875 145° Southeast 333 383 29,000  Level Denver Center
13:47 38.4697 -102.7114 144° Southeast 330 380 29,000  Level Denver Center
13:48 38.3975 -102.6464 145° Southeast 332 382 29,000  Level Denver Center
13:49 38.3125 -102.5714 145° Southeast 332 382 29,000  Level Denver Center
13:50 38.2408 -102.5075 145° Southeast 331 381 29,000  Level Denver Center
13:51 38.1561 -102.4317 145° Southeast 332 382 29,000  Level Denver Center
13:52 38.0833 -102.3672 145° Southeast 334 384 29,000  Level Denver Center
13:53 37.9997 -102.2925 145° Southeast 331 381 29,000  Level Denver Center
13:54 37.9281 -102.2289 145° Southeast 329 379 29,000  Level Denver Center
13:55 37.8428 -102.1536 145° Southeast 333 383 29,000  Level Denver Center
13:55 37.8069 -102.1206 144° Southeast 333 383 29,000  Level Kansas City Center
13:56 37.7333 -102.0578 146° Southeast 334 384 29,000  Level Kansas City Center
13:57 37.6494 -101.9844 145° Southeast 331 381 29,000  Level Kansas City Center
13:58 37.5767 -101.9197 145° Southeast 334 384 29,000  Level Kansas City Center
13:59 37.4919 -101.8469 146° Southeast 331 381 29,000  Level Kansas City Center
14:00 37.4194 -101.7853 146° Southeast 330 380 29,000  Level Kansas City Center
14:02 37.3356 -101.7106 145° Southeast 331 381 29,000  Level Kansas City Center
14:03 37.2636 -101.6497 146° Southeast 329 379 29,000  Level Kansas City Center
14:04 37.1792 -101.5761 145° Southeast 330 380 29,000  Level Kansas City Center
14:05 37.1056 -101.5131 146° Southeast 333 383 29,000  Level Kansas City Center
14:06 37.0214 -101.4425 146° Southeast 329 379 29,000  Level Kansas City Center
14:07 36.9494 -101.3794 145° Southeast 330 380 29,000  Level Kansas City Center
14:08 36.8639 -101.3075 146° Southeast 331 381 29,000  Level Kansas City Center
14:09 36.7911 -101.2461 146° Southeast 331 381 29,000  Level Kansas City Center
14:10 36.7061 -101.1733 146° Southeast 332 382 29,000  Level Kansas City Center
14:11 36.6325 -101.1119 146° Southeast 333 383 29,000  Level Kansas City Center
14:12 36.5469 -101.0389 146° Southeast 333 383 29,000  Level Kansas City Center
14:13 36.4736 -100.9769 146° Southeast 333 383 29,000  Level Kansas City Center
14:14 36.3986 -100.9139 146° Southeast 333 383 29,000  Level Kansas City Center
14:15 36.3214 -100.8492 146° Southeast 334 384 29,000  Level Kansas City Center
14:16 36.2311 -100.7731 146° Southeast 329 379 29,000  Level Kansas City Center
14:17 36.1533 -100.7103 147° Southeast 331 381 29,000  Level Kansas City Center
14:18 36.1142 -100.6761 145° Southeast 330 380 29,000  Level Albuquerque Center
14:19 36.0378 -100.6122 146° Southeast 331 381 29,000  Level Albuquerque Center
14:20 35.9614 -100.5492 146° Southeast 330 380 29,000  Level Albuquerque Center
14:21 35.8681 -100.4719 146° Southeast 334 384 29,000  Level Albuquerque Center
14:22 35.7922 -100.4094 146° Southeast 331 381 29,000  Level Albuquerque Center
14:23 35.7156 -100.3464 146° Southeast 331 381 29,000  Level Albuquerque Center
14:24 35.6386 -100.2828 146° Southeast 332 382 29,000  Level Albuquerque Center
14:25 35.5603 -100.2194 147° Southeast 335 386 29,000  Level Albuquerque Center
14:26 35.4828 -100.1558 146° Southeast 335 386 29,000  Level Albuquerque Center
14:27 35.4047 -100.0914 146° Southeast 337 388 29,000  Level Albuquerque Center
14:28 35.3097 -100.0158 147° Southeast 338 389 29,000  Level Albuquerque Center
14:29 35.2331 -99.9525 146° Southeast 336 387 29,000  Level Albuquerque Center
14:30 35.1556 -99.8903 147° Southeast 334 384 29,000  Level Albuquerque Center
14:31 35.0781 -99.8283 147° Southeast 333 383 29,000  Level Albuquerque Center
14:32 35.0017 -99.7661 146° Southeast 331 381 29,000  Level Albuquerque Center
14:33 34.9247 -99.7036 146° Southeast 331 381 29,000  Level Albuquerque Center
14:34 34.8728 -99.6633 148° Southeast 336 387 29,000  Level Fort Worth Center
14:35 34.7967 -99.6033 147° Southeast 336 387 29,000  Level Fort Worth Center
14:36 34.7206 -99.5406 146° Southeast 336 387 29,000  Level Fort Worth Center
14:37 34.6444 -99.4808 147° Southeast 336 387 29,000  Level Fort Worth Center
14:38 34.5703 -99.4183 145° Southeast 336 387 29,000  Level Fort Worth Center
14:39 34.4961 -99.3586 146° Southeast 331 381 29,000  Level Fort Worth Center
14:40 34.4200 -99.2992 147° Southeast 331 381 29,000  Level Fort Worth Center
14:41 34.3375 -99.2369 148° Southeast 331 381 29,000  Level Fort Worth Center
14:42 34.2589 -99.1750 147° Southeast 331 381 29,000  Level Fort Worth Center
14:43 34.1825 -99.1156 147° Southeast 331 381 29,000  Level Fort Worth Center
14:44 34.1042 -99.0589 149° Southeast 331 381 29,000  Level Fort Worth Center
14:45 34.0297 -98.9975 146° Southeast 325 374 29,000  Level Fort Worth Center
14:46 33.9511 -98.9333 146° Southeast 330 380 29,000  Level Fort Worth Center
14:47 33.8706 -98.8819 152° Southeast 330 380 29,000  Level Fort Worth Center
14:48 33.7917 -98.8406 156° South 324 373 29,000  Level Fort Worth Center
14:49 33.7108 -98.7894 152° Southeast 319 367 29,000  Level Fort Worth Center
14:50 33.6278 -98.7406 154° Southeast 319 367 29,000  Level Fort Worth Center
14:51 33.5428 -98.6869 152° Southeast 326 375 29,000  Level Fort Worth Center
14:52 33.4597 -98.6411 155° Southeast 326 375 29,000  Level Fort Worth Center
14:53 33.3767 -98.5900 153° Southeast 331 381 29,000  Level Fort Worth Center
14:54 33.2958 -98.5392 152° Southeast 331 381 29,000  Level Fort Worth Center
14:55 33.2108 -98.4911 155° Southeast 336 387 29,000  Level Fort Worth Center
14:56 33.1297 -98.4453 155° Southeast 336 387 29,000  Level Fort Worth Center
14:57 33.0486 -98.3997 155° Southeast 336 387 29,000  Level Fort Worth Center
14:58 32.9656 -98.3519 154° Southeast 336 387 29,000  Level Fort Worth Center
14:59 32.8822 -98.3039 154° Southeast 336 387 29,000  Level Fort Worth Center
15:00 32.8033 -98.2561 153° Southeast 331 381 29,000  Level Fort Worth Center
15:01 32.7411 -98.1792 134° Southeast 326 375 29,000  Level Fort Worth Center
15:02 32.6833 -98.0997 131° Southeast 321 369 29,000 -720 Level Fort Worth Center
15:03 32.6231 -98.0153 130° Southeast 321 369 27,600 -1,500 Descending Fort Worth Center
15:04 32.5589 -97.9311 132° Southeast 333 383 26,100 -1,500 Descending Fort Worth Center
15:05 32.4944 -97.8469 132° Southeast 338 389 24,600 -1,140 Descending Fort Worth Center
15:06 32.4361 -97.7656 130° Southeast 338 389 23,900 -1,260 Descending Fort Worth Center
15:07 32.3739 -97.6814 131° Southeast 338 389 22,100 -1,680 Descending Fort Worth Center
15:08 32.3133 -97.5978 131° Southeast 333 383 20,600 -1,560 Descending Fort Worth Center
15:09 32.2489 -97.5142 132° Southeast 338 389 19,000 -840 Descending Fort Worth Center
15:10 32.1883 -97.4356 132° Southeast 333 383 19,000  Level Fort Worth Center
15:11 32.1611 -97.3447 109° East 303 349 19,000 -120 Level Fort Worth Center
15:12 32.1464 -97.2467 100° East 289 333 18,800 -1,020 Descending Fort Worth Center
15:13 32.1317 -97.1458 100° East 299 344 17,000 -2,100 Descending Fort Worth Center
15:14 32.1167 -97.0406 100° East 312 359 14,700 -2,340 Descending Fort Worth Center
15:15 32.1039 -96.9375 98° East 317 365 12,400 -2,340 Descending Fort Worth Center
15:16 32.0911 -96.8494 100° East 312 359 10,100 -2,340 Descending Fort Worth Center
15:18 32.0521 -96.6628 101° East  Level FlightAware Approximate
15:25 32.0167 -96.4000 90° East  Level FlightAware Approximate
15:26 32.0281 -96.4006 90° East  Level Estimated
15:27 32.0281 -96.4006 90° East  Level Estimated
15:28 32.0281 -96.4006 90° East  Level Estimated
15:29 32.0281 -96.4006 90° East  Level Estimated
15:30 32.0281 -96.4006 90° East  Level Estimated
15:31 32.0281 -96.4006 90° East  Level Estimated
15:32 32.0281 -96.4006 90° East  Level Estimated
15:33 32.0281 -96.4006 90° East  Level Estimated
15:34 32.0281 -96.4006 90° East  Level Estimated
15:35 32.0281 -96.4006 90° East  Level Estimated
15:36 32.0281 -96.4006 90° East  Level Estimated
15:37 32.0281 -96.4006 90° East  Level Estimated
15:38 32.0281 -96.4006 90° East  Level Estimated
15:39 32.0281 -96.4006 90° East  Level Estimated
15:40 32.0281 -96.4006 90° East  Level Estimated
15:41 32.0281 -96.4006 90° East  Level Estimated